sensor_id;sensor_type;location;lat;lon;timestamp;P1;durP1;ratioP1;P2;durP2;ratioP2
38226;SDS011;24026;49.446;8.576;2023-11-22T00:00:52;123.03;;;110.40;;
38226;SDS011;24026;49.446;8.576;2023-11-22T00:03:13;123.45;;;110.82;;
38226;SDS011;24026;49.446;8.576;2023-11-22T00:05:33;124.40;;;111.78;;
38226;SDS011;24026;49.446;8.576;2023-11-22T00:07:54;122.82;;;110.38;;
38226;SDS011;24026;49.446;8.576;2023-11-22T00:10:14;124.53;;;111.82;;
38226;SDS011;24026;49.446;8.576;2023-11-22T00:12:34;122.75;;;110.28;;
38226;SDS011;24026;49.446;8.576;2023-11-22T00:14:58;122.35;;;109.78;;
38226;SDS011;24026;49.446;8.576;2023-11-22T00:17:18;123.05;;;110.45;;
38226;SDS011;24026;49.446;8.576;2023-11-22T00:19:39;122.55;;;110.15;;
38226;SDS011;24026;49.446;8.576;2023-11-22T00:22:00;122.53;;;110.10;;
38226;SDS011;24026;49.446;8.576;2023-11-22T00:24:20;122.50;;;110.00;;
38226;SDS011;24026;49.446;8.576;2023-11-22T00:29:49;122.15;;;109.55;;
38226;SDS011;24026;49.446;8.576;2023-11-22T00:32:10;121.55;;;108.95;;
38226;SDS011;24026;49.446;8.576;2023-11-22T00:34:30;122.47;;;109.70;;
38226;SDS011;24026;49.446;8.576;2023-11-22T00:36:51;123.40;;;110.60;;
38226;SDS011;24026;49.446;8.576;2023-11-22T00:39:11;122.28;;;109.75;;
38226;SDS011;24026;49.446;8.576;2023-11-22T00:41:33;121.90;;;109.35;;
38226;SDS011;24026;49.446;8.576;2023-11-22T00:43:55;121.55;;;109.15;;
38226;SDS011;24026;49.446;8.576;2023-11-22T00:46:15;121.88;;;109.38;;
38226;SDS011;24026;49.446;8.576;2023-11-22T00:48:36;121.95;;;109.35;;
38226;SDS011;24026;49.446;8.576;2023-11-22T00:50:57;120.32;;;107.90;;
38226;SDS011;24026;49.446;8.576;2023-11-22T00:53:17;121.70;;;109.22;;
38226;SDS011;24026;49.446;8.576;2023-11-22T00:55:38;121.80;;;109.40;;
38226;SDS011;24026;49.446;8.576;2023-11-22T00:57:58;120.82;;;108.22;;
38226;SDS011;24026;49.446;8.576;2023-11-22T01:00:24;121.25;;;108.82;;
38226;SDS011;24026;49.446;8.576;2023-11-22T01:02:44;121.75;;;109.30;;
38226;SDS011;24026;49.446;8.576;2023-11-22T01:05:08;121.40;;;109.03;;
38226;SDS011;24026;49.446;8.576;2023-11-22T01:07:31;120.63;;;108.22;;
38226;SDS011;24026;49.446;8.576;2023-11-22T01:09:51;120.30;;;107.78;;
38226;SDS011;24026;49.446;8.576;2023-11-22T01:12:13;120.07;;;107.60;;
38226;SDS011;24026;49.446;8.576;2023-11-22T01:14:33;121.15;;;108.65;;
38226;SDS011;24026;49.446;8.576;2023-11-22T01:16:54;121.95;;;109.55;;
38226;SDS011;24026;49.446;8.576;2023-11-22T01:19:15;119.00;;;106.55;;
38226;SDS011;24026;49.446;8.576;2023-11-22T01:21:36;121.63;;;109.25;;
38226;SDS011;24026;49.446;8.576;2023-11-22T01:23:56;121.57;;;108.88;;
38226;SDS011;24026;49.446;8.576;2023-11-22T01:26:18;121.18;;;108.68;;
38226;SDS011;24026;49.446;8.576;2023-11-22T01:28:38;120.80;;;108.40;;
38226;SDS011;24026;49.446;8.576;2023-11-22T01:31:04;117.03;;;104.72;;
38226;SDS011;24026;49.446;8.576;2023-11-22T01:33:24;121.25;;;108.70;;
38226;SDS011;24026;49.446;8.576;2023-11-22T01:35:45;120.35;;;107.97;;
38226;SDS011;24026;49.446;8.576;2023-11-22T01:38:05;120.85;;;108.38;;
38226;SDS011;24026;49.446;8.576;2023-11-22T01:40:26;119.88;;;107.50;;
38226;SDS011;24026;49.446;8.576;2023-11-22T01:42:46;116.28;;;104.10;;
38226;SDS011;24026;49.446;8.576;2023-11-22T01:45:07;115.10;;;102.82;;
38226;SDS011;24026;49.446;8.576;2023-11-22T01:47:29;119.93;;;107.60;;
38226;SDS011;24026;49.446;8.576;2023-11-22T01:49:49;121.45;;;108.97;;
38226;SDS011;24026;49.446;8.576;2023-11-22T01:52:10;120.45;;;108.05;;
38226;SDS011;24026;49.446;8.576;2023-11-22T01:54:30;121.05;;;108.68;;
38226;SDS011;24026;49.446;8.576;2023-11-22T01:56:51;121.20;;;108.68;;
38226;SDS011;24026;49.446;8.576;2023-11-22T01:59:13;117.03;;;104.70;;
38226;SDS011;24026;49.446;8.576;2023-11-22T02:01:34;116.63;;;104.47;;
38226;SDS011;24026;49.446;8.576;2023-11-22T02:03:54;121.53;;;109.03;;
38226;SDS011;24026;49.446;8.576;2023-11-22T02:06:15;118.75;;;106.50;;
38226;SDS011;24026;49.446;8.576;2023-11-22T02:08:36;119.95;;;107.55;;
38226;SDS011;24026;49.446;8.576;2023-11-22T02:10:57;120.15;;;107.85;;
38226;SDS011;24026;49.446;8.576;2023-11-22T02:13:23;119.25;;;106.80;;
38226;SDS011;24026;49.446;8.576;2023-11-22T02:15:43;118.97;;;106.63;;
38226;SDS011;24026;49.446;8.576;2023-11-22T02:18:04;120.50;;;108.15;;
38226;SDS011;24026;49.446;8.576;2023-11-22T02:20:25;120.82;;;108.38;;
38226;SDS011;24026;49.446;8.576;2023-11-22T02:22:47;118.97;;;106.70;;
38226;SDS011;24026;49.446;8.576;2023-11-22T02:25:07;117.53;;;105.30;;
38226;SDS011;24026;49.446;8.576;2023-11-22T02:27:28;119.43;;;107.13;;
38226;SDS011;24026;49.446;8.576;2023-11-22T02:29:48;119.65;;;107.05;;
38226;SDS011;24026;49.446;8.576;2023-11-22T02:32:08;118.82;;;106.60;;
38226;SDS011;24026;49.446;8.576;2023-11-22T02:34:29;118.22;;;106.03;;
38226;SDS011;24026;49.446;8.576;2023-11-22T02:36:49;115.55;;;103.40;;
38226;SDS011;24026;49.446;8.576;2023-11-22T02:39:13;117.45;;;105.15;;
38226;SDS011;24026;49.446;8.576;2023-11-22T02:41:34;116.03;;;103.90;;
38226;SDS011;24026;49.446;8.576;2023-11-22T02:43:55;119.05;;;106.78;;
38226;SDS011;24026;49.446;8.576;2023-11-22T02:46:17;119.82;;;107.55;;
38226;SDS011;24026;49.446;8.576;2023-11-22T02:48:37;115.72;;;103.63;;
38226;SDS011;24026;49.446;8.576;2023-11-22T02:50:58;118.18;;;105.85;;
38226;SDS011;24026;49.446;8.576;2023-11-22T02:53:18;120.22;;;107.63;;
38226;SDS011;24026;49.446;8.576;2023-11-22T02:55:39;118.63;;;106.47;;
38226;SDS011;24026;49.446;8.576;2023-11-22T02:57:59;118.95;;;106.55;;
38226;SDS011;24026;49.446;8.576;2023-11-22T03:00:19;119.35;;;107.05;;
38226;SDS011;24026;49.446;8.576;2023-11-22T03:02:40;118.65;;;106.30;;
38226;SDS011;24026;49.446;8.576;2023-11-22T03:05:02;118.22;;;105.93;;
38226;SDS011;24026;49.446;8.576;2023-11-22T03:07:24;113.97;;;101.68;;
38226;SDS011;24026;49.446;8.576;2023-11-22T03:09:45;118.53;;;106.22;;
38226;SDS011;24026;49.446;8.576;2023-11-22T03:12:06;117.93;;;105.80;;
38226;SDS011;24026;49.446;8.576;2023-11-22T03:14:29;119.05;;;106.65;;
38226;SDS011;24026;49.446;8.576;2023-11-22T03:16:52;112.03;;;100.05;;
38226;SDS011;24026;49.446;8.576;2023-11-22T03:19:12;118.32;;;106.03;;
38226;SDS011;24026;49.446;8.576;2023-11-22T03:21:33;117.45;;;105.35;;
38226;SDS011;24026;49.446;8.576;2023-11-22T03:23:55;112.43;;;100.40;;
38226;SDS011;24026;49.446;8.576;2023-11-22T03:26:16;114.95;;;102.75;;
38226;SDS011;24026;49.446;8.576;2023-11-22T03:28:36;118.55;;;106.43;;
38226;SDS011;24026;49.446;8.576;2023-11-22T03:30:56;114.38;;;102.32;;
38226;SDS011;24026;49.446;8.576;2023-11-22T03:33:19;118.70;;;106.40;;
38226;SDS011;24026;49.446;8.576;2023-11-22T03:35:40;118.25;;;105.95;;
38226;SDS011;24026;49.446;8.576;2023-11-22T03:38:01;116.90;;;104.78;;
38226;SDS011;24026;49.446;8.576;2023-11-22T03:40:21;118.07;;;105.80;;
38226;SDS011;24026;49.446;8.576;2023-11-22T03:42:42;116.95;;;104.72;;
38226;SDS011;24026;49.446;8.576;2023-11-22T03:45:03;116.80;;;104.63;;
38226;SDS011;24026;49.446;8.576;2023-11-22T03:47:24;115.50;;;103.45;;
38226;SDS011;24026;49.446;8.576;2023-11-22T03:49:45;111.53;;;99.53;;
38226;SDS011;24026;49.446;8.576;2023-11-22T03:52:05;112.78;;;100.70;;
38226;SDS011;24026;49.446;8.576;2023-11-22T03:54:26;114.75;;;102.63;;
38226;SDS011;24026;49.446;8.576;2023-11-22T03:56:46;117.28;;;105.13;;
38226;SDS011;24026;49.446;8.576;2023-11-22T03:59:07;111.88;;;99.93;;
38226;SDS011;24026;49.446;8.576;2023-11-22T04:01:27;114.28;;;102.10;;
38226;SDS011;24026;49.446;8.576;2023-11-22T04:03:48;117.53;;;105.32;;
38226;SDS011;24026;49.446;8.576;2023-11-22T04:06:08;117.80;;;105.50;;
38226;SDS011;24026;49.446;8.576;2023-11-22T04:08:29;117.38;;;105.03;;
38226;SDS011;24026;49.446;8.576;2023-11-22T04:10:50;114.63;;;102.38;;
38226;SDS011;24026;49.446;8.576;2023-11-22T04:13:10;113.43;;;101.25;;
38226;SDS011;24026;49.446;8.576;2023-11-22T04:15:31;116.95;;;104.80;;
38226;SDS011;24026;49.446;8.576;2023-11-22T04:17:52;117.20;;;105.03;;
38226;SDS011;24026;49.446;8.576;2023-11-22T04:20:14;110.93;;;99.00;;
38226;SDS011;24026;49.446;8.576;2023-11-22T04:22:35;116.70;;;104.55;;
38226;SDS011;24026;49.446;8.576;2023-11-22T04:24:56;113.32;;;101.28;;
38226;SDS011;24026;49.446;8.576;2023-11-22T04:27:16;117.45;;;105.25;;
38226;SDS011;24026;49.446;8.576;2023-11-22T04:29:37;112.50;;;100.40;;
38226;SDS011;24026;49.446;8.576;2023-11-22T04:31:57;116.90;;;104.78;;
38226;SDS011;24026;49.446;8.576;2023-11-22T04:34:17;117.60;;;105.40;;
38226;SDS011;24026;49.446;8.576;2023-11-22T04:36:38;117.60;;;105.38;;
38226;SDS011;24026;49.446;8.576;2023-11-22T04:39:01;117.25;;;105.05;;
38226;SDS011;24026;49.446;8.576;2023-11-22T04:41:23;110.57;;;98.70;;
38226;SDS011;24026;49.446;8.576;2023-11-22T04:43:45;115.47;;;103.28;;
38226;SDS011;24026;49.446;8.576;2023-11-22T04:46:05;116.18;;;104.10;;
38226;SDS011;24026;49.446;8.576;2023-11-22T04:48:26;116.40;;;104.28;;
38226;SDS011;24026;49.446;8.576;2023-11-22T04:50:46;115.53;;;103.32;;
38226;SDS011;24026;49.446;8.576;2023-11-22T04:53:06;112.80;;;100.75;;
38226;SDS011;24026;49.446;8.576;2023-11-22T04:55:27;116.97;;;104.82;;
38226;SDS011;24026;49.446;8.576;2023-11-22T04:57:48;119.53;;;107.15;;
38226;SDS011;24026;49.446;8.576;2023-11-22T05:00:09;117.45;;;105.28;;
38226;SDS011;24026;49.446;8.576;2023-11-22T05:02:29;116.63;;;104.53;;
38226;SDS011;24026;49.446;8.576;2023-11-22T05:04:50;110.80;;;98.88;;
38226;SDS011;24026;49.446;8.576;2023-11-22T05:07:12;116.80;;;104.63;;
38226;SDS011;24026;49.446;8.576;2023-11-22T05:09:33;117.47;;;105.32;;
38226;SDS011;24026;49.446;8.576;2023-11-22T05:11:53;117.60;;;105.38;;
38226;SDS011;24026;49.446;8.576;2023-11-22T05:14:14;117.90;;;105.70;;
38226;SDS011;24026;49.446;8.576;2023-11-22T05:16:34;113.93;;;101.93;;
38226;SDS011;24026;49.446;8.576;2023-11-22T05:18:54;111.05;;;98.95;;
38226;SDS011;24026;49.446;8.576;2023-11-22T05:21:15;115.55;;;103.43;;
38226;SDS011;24026;49.446;8.576;2023-11-22T05:23:35;116.15;;;103.95;;
38226;SDS011;24026;49.446;8.576;2023-11-22T05:25:57;112.63;;;100.60;;
38226;SDS011;24026;49.446;8.576;2023-11-22T05:28:19;117.50;;;105.10;;
38226;SDS011;24026;49.446;8.576;2023-11-22T05:30:40;114.45;;;102.30;;
38226;SDS011;24026;49.446;8.576;2023-11-22T05:33:00;112.93;;;100.70;;
38226;SDS011;24026;49.446;8.576;2023-11-22T05:35:21;118.43;;;106.18;;
38226;SDS011;24026;49.446;8.576;2023-11-22T05:37:44;118.15;;;105.85;;
38226;SDS011;24026;49.446;8.576;2023-11-22T05:40:04;113.57;;;101.53;;
38226;SDS011;24026;49.446;8.576;2023-11-22T05:42:26;118.03;;;105.72;;
38226;SDS011;24026;49.446;8.576;2023-11-22T05:44:49;118.00;;;105.68;;
38226;SDS011;24026;49.446;8.576;2023-11-22T05:47:12;117.95;;;105.65;;
38226;SDS011;24026;49.446;8.576;2023-11-22T05:49:33;115.75;;;103.55;;
38226;SDS011;24026;49.446;8.576;2023-11-22T05:51:54;112.75;;;100.57;;
38226;SDS011;24026;49.446;8.576;2023-11-22T05:54:15;115.55;;;103.43;;
38226;SDS011;24026;49.446;8.576;2023-11-22T05:56:36;119.05;;;106.60;;
38226;SDS011;24026;49.446;8.576;2023-11-22T05:58:58;117.90;;;105.70;;
38226;SDS011;24026;49.446;8.576;2023-11-22T06:01:19;117.32;;;105.13;;
38226;SDS011;24026;49.446;8.576;2023-11-22T06:03:40;118.10;;;105.82;;
38226;SDS011;24026;49.446;8.576;2023-11-22T06:06:01;112.68;;;100.60;;
38226;SDS011;24026;49.446;8.576;2023-11-22T06:08:23;113.68;;;101.63;;
38226;SDS011;24026;49.446;8.576;2023-11-22T06:13:52;118.38;;;105.70;;
38226;SDS011;24026;49.446;8.576;2023-11-22T06:21:07;117.85;;;105.43;;
38226;SDS011;24026;49.446;8.576;2023-11-22T06:29:16;120.30;;;107.72;;
38226;SDS011;24026;49.446;8.576;2023-11-22T06:41:31;122.55;;;109.78;;
38226;SDS011;24026;49.446;8.576;2023-11-22T06:44:16;130.30;;;116.63;;
38226;SDS011;24026;49.446;8.576;2023-11-22T06:47:26;130.20;;;116.13;;
38226;SDS011;24026;49.446;8.576;2023-11-22T06:50:08;139.52;;;124.72;;
38226;SDS011;24026;49.446;8.576;2023-11-22T06:56:41;146.60;;;130.50;;
38226;SDS011;24026;49.446;8.576;2023-11-22T06:59:26;143.25;;;127.72;;
38226;SDS011;24026;49.446;8.576;2023-11-22T07:01:52;150.37;;;134.37;;
38226;SDS011;24026;49.446;8.576;2023-11-22T07:04:30;148.25;;;132.57;;
38226;SDS011;24026;49.446;8.576;2023-11-22T07:10:54;162.23;;;144.75;;
38226;SDS011;24026;49.446;8.576;2023-11-22T07:13:16;166.80;;;147.48;;
38226;SDS011;24026;49.446;8.576;2023-11-22T07:15:38;160.63;;;142.70;;
38226;SDS011;24026;49.446;8.576;2023-11-22T07:18:00;163.10;;;145.38;;
38226;SDS011;24026;49.446;8.576;2023-11-22T07:20:21;164.90;;;146.23;;
38226;SDS011;24026;49.446;8.576;2023-11-22T07:22:44;163.40;;;141.95;;
38226;SDS011;24026;49.446;8.576;2023-11-22T07:28:55;169.32;;;147.88;;
38226;SDS011;24026;49.446;8.576;2023-11-22T07:36:19;171.93;;;149.75;;
38226;SDS011;24026;49.446;8.576;2023-11-22T07:38:40;171.45;;;150.38;;
38226;SDS011;24026;49.446;8.576;2023-11-22T07:43:53;169.93;;;144.75;;
38226;SDS011;24026;49.446;8.576;2023-11-22T07:46:14;168.95;;;147.02;;
38226;SDS011;24026;49.446;8.576;2023-11-22T07:48:35;175.20;;;149.07;;
38226;SDS011;24026;49.446;8.576;2023-11-22T07:50:57;164.63;;;146.55;;
38226;SDS011;24026;49.446;8.576;2023-11-22T07:56:04;166.93;;;148.68;;
38226;SDS011;24026;49.446;8.576;2023-11-22T07:58:25;163.65;;;146.15;;
38226;SDS011;24026;49.446;8.576;2023-11-22T08:00:46;172.68;;;148.82;;
38226;SDS011;24026;49.446;8.576;2023-11-22T08:03:07;160.82;;;143.18;;
38226;SDS011;24026;49.446;8.576;2023-11-22T08:05:30;163.98;;;146.00;;
38226;SDS011;24026;49.446;8.576;2023-11-22T08:07:56;160.60;;;140.23;;
38226;SDS011;24026;49.446;8.576;2023-11-22T08:10:17;172.23;;;148.55;;
38226;SDS011;24026;49.446;8.576;2023-11-22T08:12:41;165.18;;;144.68;;
38226;SDS011;24026;49.446;8.576;2023-11-22T08:15:02;166.85;;;141.18;;
38226;SDS011;24026;49.446;8.576;2023-11-22T08:17:23;161.13;;;141.93;;
38226;SDS011;24026;49.446;8.576;2023-11-22T08:19:44;167.18;;;142.80;;
38226;SDS011;24026;49.446;8.576;2023-11-22T08:25:25;165.82;;;145.00;;
38226;SDS011;24026;49.446;8.576;2023-11-22T08:27:46;168.32;;;141.93;;
38226;SDS011;24026;49.446;8.576;2023-11-22T08:30:07;160.48;;;137.68;;
38226;SDS011;24026;49.446;8.576;2023-11-22T08:32:33;163.20;;;141.00;;
38226;SDS011;24026;49.446;8.576;2023-11-22T08:34:53;163.77;;;141.65;;
38226;SDS011;24026;49.446;8.576;2023-11-22T08:37:13;161.05;;;141.35;;
38226;SDS011;24026;49.446;8.576;2023-11-22T08:39:34;159.02;;;139.18;;
38226;SDS011;24026;49.446;8.576;2023-11-22T08:41:54;158.75;;;141.35;;
38226;SDS011;24026;49.446;8.576;2023-11-22T08:44:15;167.63;;;142.75;;
38226;SDS011;24026;49.446;8.576;2023-11-22T08:46:35;156.60;;;139.55;;
38226;SDS011;24026;49.446;8.576;2023-11-22T08:48:55;159.98;;;140.68;;
38226;SDS011;24026;49.446;8.576;2023-11-22T08:51:16;162.07;;;141.80;;
38226;SDS011;24026;49.446;8.576;2023-11-22T08:53:45;159.38;;;139.23;;
38226;SDS011;24026;49.446;8.576;2023-11-22T08:56:05;168.70;;;142.18;;
38226;SDS011;24026;49.446;8.576;2023-11-22T08:58:32;161.77;;;140.35;;
38226;SDS011;24026;49.446;8.576;2023-11-22T09:01:07;162.93;;;139.43;;
38226;SDS011;24026;49.446;8.576;2023-11-22T09:03:27;157.63;;;134.13;;
38226;SDS011;24026;49.446;8.576;2023-11-22T09:05:48;158.07;;;137.85;;
38226;SDS011;24026;49.446;8.576;2023-11-22T09:08:09;165.93;;;142.70;;
38226;SDS011;24026;49.446;8.576;2023-11-22T09:10:35;158.85;;;140.10;;
38226;SDS011;24026;49.446;8.576;2023-11-22T09:13:02;158.38;;;141.23;;
38226;SDS011;24026;49.446;8.576;2023-11-22T09:15:40;158.98;;;141.18;;
38226;SDS011;24026;49.446;8.576;2023-11-22T09:18:30;155.68;;;136.75;;
38226;SDS011;24026;49.446;8.576;2023-11-22T09:21:19;154.35;;;135.50;;
38226;SDS011;24026;49.446;8.576;2023-11-22T09:26:59;163.38;;;137.40;;
38226;SDS011;24026;49.446;8.576;2023-11-22T09:29:38;151.20;;;135.05;;
38226;SDS011;24026;49.446;8.576;2023-11-22T09:31:59;154.48;;;137.50;;
38226;SDS011;24026;49.446;8.576;2023-11-22T09:34:20;153.70;;;135.45;;
38226;SDS011;24026;49.446;8.576;2023-11-22T09:36:41;155.60;;;138.95;;
38226;SDS011;24026;49.446;8.576;2023-11-22T09:39:04;156.63;;;139.55;;
38226;SDS011;24026;49.446;8.576;2023-11-22T09:41:28;159.23;;;139.43;;
38226;SDS011;24026;49.446;8.576;2023-11-22T09:43:55;158.82;;;139.35;;
38226;SDS011;24026;49.446;8.576;2023-11-22T09:46:42;157.10;;;140.10;;
38226;SDS011;24026;49.446;8.576;2023-11-22T09:52:06;153.80;;;134.90;;
38226;SDS011;24026;49.446;8.576;2023-11-22T09:55:07;161.43;;;135.32;;
38226;SDS011;24026;49.446;8.576;2023-11-22T10:04:00;185.73;;;144.63;;
38226;SDS011;24026;49.446;8.576;2023-11-22T10:06:59;179.63;;;146.35;;
38226;SDS011;24026;49.446;8.576;2023-11-22T10:25:41;216.35;;;158.35;;
38226;SDS011;24026;49.446;8.576;2023-11-22T10:32:19;208.15;;;154.88;;
38226;SDS011;24026;49.446;8.576;2023-11-22T10:39:00;211.13;;;152.60;;
38226;SDS011;24026;49.446;8.576;2023-11-22T10:41:42;218.00;;;168.05;;
38226;SDS011;24026;49.446;8.576;2023-11-22T10:48:17;213.18;;;166.57;;
38226;SDS011;24026;49.446;8.576;2023-11-22T10:51:19;230.90;;;171.50;;
38226;SDS011;24026;49.446;8.576;2023-11-22T10:53:51;243.88;;;188.48;;
38226;SDS011;24026;49.446;8.576;2023-11-22T10:56:19;228.57;;;184.50;;
38226;SDS011;24026;49.446;8.576;2023-11-22T10:59:34;249.13;;;194.63;;
38226;SDS011;24026;49.446;8.576;2023-11-22T11:02:41;246.48;;;194.15;;
38226;SDS011;24026;49.446;8.576;2023-11-22T11:05:16;237.20;;;186.73;;
38226;SDS011;24026;49.446;8.576;2023-11-22T11:07:39;234.43;;;189.40;;
38226;SDS011;24026;49.446;8.576;2023-11-22T11:10:04;230.00;;;188.93;;
38226;SDS011;24026;49.446;8.576;2023-11-22T11:12:34;223.30;;;185.70;;
38226;SDS011;24026;49.446;8.576;2023-11-22T11:15:05;225.95;;;192.57;;
38226;SDS011;24026;49.446;8.576;2023-11-22T11:17:31;229.98;;;188.93;;
38226;SDS011;24026;49.446;8.576;2023-11-22T11:19:52;222.90;;;187.00;;
38226;SDS011;24026;49.446;8.576;2023-11-22T11:22:13;223.82;;;186.10;;
38226;SDS011;24026;49.446;8.576;2023-11-22T11:24:38;220.10;;;191.48;;
38226;SDS011;24026;49.446;8.576;2023-11-22T11:27:04;229.82;;;188.70;;
38226;SDS011;24026;49.446;8.576;2023-11-22T11:33:02;246.20;;;202.10;;
38226;SDS011;24026;49.446;8.576;2023-11-22T11:35:38;230.00;;;189.25;;
38226;SDS011;24026;49.446;8.576;2023-11-22T11:38:05;226.27;;;190.48;;
38226;SDS011;24026;49.446;8.576;2023-11-22T11:40:32;242.18;;;199.52;;
38226;SDS011;24026;49.446;8.576;2023-11-22T11:43:00;242.90;;;197.27;;
38226;SDS011;24026;49.446;8.576;2023-11-22T11:45:43;242.93;;;201.18;;
38226;SDS011;24026;49.446;8.576;2023-11-22T11:48:29;231.75;;;195.85;;
38226;SDS011;24026;49.446;8.576;2023-11-22T11:54:09;231.43;;;193.98;;
38226;SDS011;24026;49.446;8.576;2023-11-22T11:59:14;228.73;;;189.45;;
38226;SDS011;24026;49.446;8.576;2023-11-22T12:01:35;229.90;;;187.30;;
38226;SDS011;24026;49.446;8.576;2023-11-22T12:03:56;223.10;;;185.40;;
38226;SDS011;24026;49.446;8.576;2023-11-22T12:06:17;227.85;;;189.18;;
38226;SDS011;24026;49.446;8.576;2023-11-22T12:08:39;218.52;;;187.43;;
38226;SDS011;24026;49.446;8.576;2023-11-22T12:11:02;213.88;;;188.27;;
38226;SDS011;24026;49.446;8.576;2023-11-22T12:13:25;225.32;;;187.18;;
38226;SDS011;24026;49.446;8.576;2023-11-22T12:30:49;267.27;;;208.52;;
38226;SDS011;24026;49.446;8.576;2023-11-22T12:33:20;290.20;;;217.65;;
38226;SDS011;24026;49.446;8.576;2023-11-22T12:35:57;286.27;;;226.98;;
38226;SDS011;24026;49.446;8.576;2023-11-22T12:38:17;278.90;;;221.15;;
38226;SDS011;24026;49.446;8.576;2023-11-22T12:40:43;298.92;;;230.13;;
38226;SDS011;24026;49.446;8.576;2023-11-22T12:43:06;312.10;;;250.85;;
38226;SDS011;24026;49.446;8.576;2023-11-22T12:45:29;292.60;;;230.93;;
38226;SDS011;24026;49.446;8.576;2023-11-22T12:47:51;282.98;;;219.88;;
38226;SDS011;24026;49.446;8.576;2023-11-22T12:50:28;288.95;;;227.50;;
38226;SDS011;24026;49.446;8.576;2023-11-22T12:53:22;316.90;;;236.60;;
38226;SDS011;24026;49.446;8.576;2023-11-22T12:55:44;310.15;;;238.18;;
38226;SDS011;24026;49.446;8.576;2023-11-22T12:58:08;282.85;;;209.77;;
38226;SDS011;24026;49.446;8.576;2023-11-22T13:00:29;282.42;;;215.02;;
38226;SDS011;24026;49.446;8.576;2023-11-22T13:02:50;299.58;;;224.75;;
38226;SDS011;24026;49.446;8.576;2023-11-22T13:05:10;287.05;;;219.07;;
38226;SDS011;24026;49.446;8.576;2023-11-22T13:07:36;286.05;;;216.07;;
38226;SDS011;24026;49.446;8.576;2023-11-22T13:09:59;283.15;;;220.88;;
38226;SDS011;24026;49.446;8.576;2023-11-22T13:12:19;266.15;;;197.00;;
38226;SDS011;24026;49.446;8.576;2023-11-22T13:14:40;286.50;;;209.57;;
38226;SDS011;24026;49.446;8.576;2023-11-22T13:17:01;289.48;;;216.90;;
38226;SDS011;24026;49.446;8.576;2023-11-22T13:19:21;289.27;;;213.88;;
38226;SDS011;24026;49.446;8.576;2023-11-22T13:21:42;290.45;;;215.52;;
38226;SDS011;24026;49.446;8.576;2023-11-22T13:24:05;285.60;;;218.15;;
38226;SDS011;24026;49.446;8.576;2023-11-22T13:26:29;287.98;;;213.20;;
38226;SDS011;24026;49.446;8.576;2023-11-22T13:29:04;296.75;;;229.40;;
38226;SDS011;24026;49.446;8.576;2023-11-22T13:31:24;287.13;;;224.30;;
38226;SDS011;24026;49.446;8.576;2023-11-22T13:33:47;268.88;;;203.70;;
38226;SDS011;24026;49.446;8.576;2023-11-22T13:36:41;268.15;;;208.52;;
38226;SDS011;24026;49.446;8.576;2023-11-22T13:39:27;297.83;;;239.00;;
38226;SDS011;24026;49.446;8.576;2023-11-22T13:42:04;287.35;;;233.18;;
38226;SDS011;24026;49.446;8.576;2023-11-22T13:44:40;309.10;;;236.23;;
38226;SDS011;24026;49.446;8.576;2023-11-22T13:47:01;297.73;;;243.73;;
38226;SDS011;24026;49.446;8.576;2023-11-22T13:49:27;294.50;;;239.35;;
38226;SDS011;24026;49.446;8.576;2023-11-22T13:51:53;308.17;;;236.50;;
38226;SDS011;24026;49.446;8.576;2023-11-22T13:54:14;302.27;;;239.85;;
38226;SDS011;24026;49.446;8.576;2023-11-22T13:59:21;281.75;;;222.48;;
38226;SDS011;24026;49.446;8.576;2023-11-22T14:01:44;275.92;;;220.88;;
38226;SDS011;24026;49.446;8.576;2023-11-22T14:04:06;284.52;;;228.05;;
38226;SDS011;24026;49.446;8.576;2023-11-22T14:09:51;345.55;;;259.38;;
38226;SDS011;24026;49.446;8.576;2023-11-22T14:15:49;316.20;;;243.48;;
38226;SDS011;24026;49.446;8.576;2023-11-22T14:18:39;317.85;;;255.68;;
38226;SDS011;24026;49.446;8.576;2023-11-22T14:21:05;376.40;;;284.85;;
38226;SDS011;24026;49.446;8.576;2023-11-22T14:23:35;381.63;;;285.92;;
38226;SDS011;24026;49.446;8.576;2023-11-22T14:26:05;343.58;;;266.23;;
38226;SDS011;24026;49.446;8.576;2023-11-22T14:32:36;376.63;;;291.20;;
38226;SDS011;24026;49.446;8.576;2023-11-22T14:35:02;375.20;;;287.30;;
38226;SDS011;24026;49.446;8.576;2023-11-22T14:37:30;369.15;;;291.83;;
38226;SDS011;24026;49.446;8.576;2023-11-22T14:39:57;388.60;;;301.45;;
38226;SDS011;24026;49.446;8.576;2023-11-22T14:42:21;380.42;;;300.38;;
38226;SDS011;24026;49.446;8.576;2023-11-22T14:45:28;357.02;;;282.05;;
38226;SDS011;24026;49.446;8.576;2023-11-22T14:50:51;375.80;;;297.85;;
38226;SDS011;24026;49.446;8.576;2023-11-22T14:53:12;372.90;;;286.75;;
38226;SDS011;24026;49.446;8.576;2023-11-22T14:55:32;364.55;;;282.02;;
38226;SDS011;24026;49.446;8.576;2023-11-22T14:57:58;379.65;;;293.98;;
38226;SDS011;24026;49.446;8.576;2023-11-22T15:00:19;385.95;;;297.90;;
38226;SDS011;24026;49.446;8.576;2023-11-22T15:02:41;363.92;;;287.30;;
38226;SDS011;24026;49.446;8.576;2023-11-22T15:05:09;378.07;;;292.50;;
38226;SDS011;24026;49.446;8.576;2023-11-22T15:07:32;372.75;;;289.83;;
38226;SDS011;24026;49.446;8.576;2023-11-22T15:09:53;354.23;;;280.15;;
38226;SDS011;24026;49.446;8.576;2023-11-22T15:12:17;372.38;;;290.50;;
38226;SDS011;24026;49.446;8.576;2023-11-22T15:14:38;360.30;;;286.42;;
38226;SDS011;24026;49.446;8.576;2023-11-22T15:16:59;367.88;;;283.67;;
38226;SDS011;24026;49.446;8.576;2023-11-22T15:19:23;341.27;;;270.52;;
38226;SDS011;24026;49.446;8.576;2023-11-22T15:21:47;363.10;;;282.27;;
38226;SDS011;24026;49.446;8.576;2023-11-22T15:24:08;341.02;;;265.52;;
38226;SDS011;24026;49.446;8.576;2023-11-22T15:26:28;347.75;;;282.05;;
38226;SDS011;24026;49.446;8.576;2023-11-22T15:28:49;359.38;;;276.17;;
38226;SDS011;24026;49.446;8.576;2023-11-22T15:31:09;356.55;;;272.40;;
38226;SDS011;24026;49.446;8.576;2023-11-22T15:33:30;341.35;;;272.48;;
38226;SDS011;24026;49.446;8.576;2023-11-22T15:35:50;329.40;;;267.77;;
38226;SDS011;24026;49.446;8.576;2023-11-22T15:38:11;347.05;;;273.40;;
38226;SDS011;24026;49.446;8.576;2023-11-22T15:40:31;311.75;;;255.52;;
38226;SDS011;24026;49.446;8.576;2023-11-22T15:42:51;356.25;;;280.23;;
38226;SDS011;24026;49.446;8.576;2023-11-22T15:45:12;326.05;;;256.70;;
38226;SDS011;24026;49.446;8.576;2023-11-22T15:47:32;306.33;;;253.80;;
38226;SDS011;24026;49.446;8.576;2023-11-22T15:49:53;331.40;;;259.65;;
38226;SDS011;24026;49.446;8.576;2023-11-22T15:52:14;325.20;;;264.65;;
38226;SDS011;24026;49.446;8.576;2023-11-22T15:54:35;327.48;;;257.05;;